Time;durP1;ratioP1;P1;durP2;ratioP2;P2;SDS_P1;SDS_P2;PMS_P1;PMS_P2;Temp;Humidity;BMP_temperature;BMP_pressure;BME280_temperature;BME280_humidity;BME280_pressure;Samples;Min_cycle;Max_cycle;Signal;HPM_P1;HPM_P2
2021/08/31 00:00:00;;;;;;;6.10;4.28;;;15.40;86.60;;;13.90;95.55;96115.97;4967200;28;20027;-70
2021/08/31 00:02:25;;;;;;;4.53;4.03;;;15.40;86.70;;;13.88;95.39;96104.78;4958525;28;20174;-70
2021/08/31 00:04:51;;;;;;;5.00;4.15;;;15.30;86.80;;;13.88;95.62;96119.84;4960110;28;20133;-70
2021/08/31 00:07:17;;;;;;;4.63;4.13;;;15.40;86.80;;;13.86;95.62;96117.41;4969708;28;20073;-71
2021/08/31 00:09:43;;;;;;;4.43;3.75;;;15.30;86.70;;;13.84;95.02;96119.47;4972281;28;20058;-70
2021/08/31 00:12:08;;;;;;;4.80;4.30;;;15.30;86.60;;;13.80;95.58;96120.88;4956549;28;20546;-70
2021/08/31 00:14:36;;;;;;;5.18;4.35;;;15.20;86.90;;;13.75;95.14;96124.16;4989439;28;20431;-70
2021/08/31 00:17:02;;;;;;;5.40;4.53;;;15.10;87.00;;;13.74;94.53;96124.34;4954099;28;20114;-69
2021/08/31 00:19:28;;;;;;;4.50;4.07;;;15.10;87.20;;;13.71;94.97;96130.06;4991457;28;20031;-70
2021/08/31 00:21:54;;;;;;;6.10;4.70;;;15.10;87.10;;;13.70;95.11;96128.44;4989849;28;20061;-70
2021/08/31 00:24:19;;;;;;;5.75;4.30;;;15.10;87.30;;;13.70;95.42;96128.44;4991836;28;20117;-70
2021/08/31 00:26:45;;;;;;;5.68;4.55;;;15.10;87.30;;;13.69;95.81;96126.81;4969772;28;20117;-70
2021/08/31 00:29:11;;;;;;;5.60;4.60;;;15.10;87.40;;;13.66;94.96;96124.59;4991475;28;20054;-69
2021/08/31 00:31:37;;;;;;;5.93;4.60;;;15.10;87.60;;;13.66;95.23;96127.22;4985541;28;20104;-70
2021/08/31 00:34:02;;;;;;;5.38;4.22;;;15.10;87.20;;;13.64;95.62;96123.97;4975586;28;20121;-69
2021/08/31 00:36:28;;;;;;;5.45;4.55;;;15.10;87.20;;;13.63;95.84;96130.28;4977272;28;20121;-70
2021/08/31 00:38:56;;;;;;;5.20;4.65;;;15.00;87.50;;;13.60;96.04;96133.34;4990681;28;20062;-70
2021/08/31 00:41:22;;;;;;;4.78;4.10;;;15.00;87.50;;;13.60;96.09;96134.16;4955927;28;20506;-71
2021/08/31 00:43:48;;;;;;;6.30;4.90;;;15.00;87.40;;;13.58;95.77;96123.00;4944417;28;20035;-70
2021/08/31 00:46:15;;;;;;;6.25;4.57;;;15.00;87.40;;;13.58;95.80;96124.78;4942740;28;20031;-70
2021/08/31 00:48:42;;;;;;;4.95;4.32;;;15.00;87.50;;;13.56;96.21;96135.56;4956041;28;20038;-69
2021/08/31 00:51:08;;;;;;;6.18;4.60;;;14.90;87.70;;;13.57;95.97;96134.56;4940484;28;20043;-69
2021/08/31 00:53:35;;;;;;;5.30;4.18;;;15.00;87.60;;;13.57;97.05;96139.84;4955706;28;20049;-70
2021/08/31 00:56:03;;;;;;;6.80;5.00;;;15.10;87.40;;;13.57;96.26;96145.13;4959252;28;20359;-69
2021/08/31 00:58:31;;;;;;;6.13;4.65;;;15.10;87.40;;;13.59;96.61;96144.94;4940200;28;20045;-69
2021/08/31 01:00:58;;;;;;;5.28;4.78;;;15.10;87.50;;;13.59;96.55;96150.22;4947233;28;20058;-70
2021/08/31 01:03:24;;;;;;;7.05;4.60;;;15.00;87.60;;;13.59;96.61;96144.94;4990757;28;20588;-69
2021/08/31 01:05:50;;;;;;;7.35;4.78;;;15.10;87.70;;;13.59;96.95;96153.69;4947469;28;20019;-71
2021/08/31 01:08:16;;;;;;;7.05;4.70;;;15.10;87.70;;;13.63;96.67;96159.38;4973851;28;20023;-70
2021/08/31 01:10:42;;;;;;;6.10;4.68;;;15.10;87.60;;;13.64;97.65;96158.34;4990062;28;20114;-69
2021/08/31 01:13:07;;;;;;;6.20;4.90;;;15.20;87.60;;;13.67;97.14;96160.56;4955702;28;20125;-68
2021/08/31 01:15:33;;;;;;;5.10;4.60;;;15.20;87.40;;;13.66;97.14;96161.59;4946349;28;20031;-70
2021/08/31 01:18:21;;;;;;;6.05;4.45;;;15.20;87.50;;;13.69;97.58;96163.81;4985339;28;20490;-70
2021/08/31 01:20:48;;;;;;;4.40;3.63;;;15.30;87.10;;;13.69;96.61;96163.81;4987574;28;20483;-70
2021/08/31 01:23:15;;;;;;;5.28;3.22;;;15.30;87.00;;;13.70;96.84;96154.88;4970665;28;20035;-69
2021/08/31 01:25:42;;;;;;;4.28;3.35;;;15.30;86.70;;;13.70;96.18;96160.97;4971349;28;20506;-70
2021/08/31 01:28:08;;;;;;;4.57;3.45;;;15.30;86.50;;;13.69;96.56;96153.25;4973232;28;20038;-71
2021/08/31 01:30:34;;;;;;;4.18;3.72;;;15.10;86.60;;;13.69;96.26;96164.63;4973516;28;20046;-70
2021/08/31 01:33:00;;;;;;;4.95;4.47;;;15.20;86.70;;;13.68;96.73;96162.19;4956568;28;20129;-70
2021/08/31 01:35:27;;;;;;;4.90;4.32;;;15.20;86.70;;;13.68;96.13;96159.56;4972198;28;20046;-70
2021/08/31 01:37:52;;;;;;;7.05;5.05;;;15.20;86.90;;;13.68;95.73;96162.19;4953473;28;20026;-70
2021/08/31 01:40:18;;;;;;;5.75;5.15;;;15.20;86.90;;;13.67;96.38;96157.94;4965253;28;20505;-70
2021/08/31 01:42:44;;;;;;;6.82;5.50;;;15.10;86.90;;;13.68;96.30;96167.47;4973859;28;20030;-70
2021/08/31 01:45:10;;;;;;;7.88;5.55;;;15.10;86.90;;;13.67;96.14;96155.28;4964726;28;20066;-69
2021/08/31 01:47:36;;;;;;;7.25;5.10;;;15.20;87.00;;;13.66;96.34;96164.25;4987505;28;20466;-70
2021/08/31 01:50:01;;;;;;;6.07;5.10;;;15.10;87.10;;;13.65;96.55;96157.31;4960646;28;20122;-70
2021/08/31 01:52:27;;;;;;;6.78;5.55;;;15.20;86.90;;;13.66;96.10;96164.25;4951324;28;20121;-70
2021/08/31 01:54:53;;;;;;;5.97;4.60;;;15.10;86.70;;;13.62;95.52;96158.56;4978626;28;20122;-70
2021/08/31 01:57:18;;;;;;;5.68;5.18;;;15.10;86.60;;;13.61;95.33;96158.75;4978690;28;20046;-70
2021/08/31 01:59:44;;;;;;;6.20;5.60;;;15.10;86.60;;;13.59;95.96;96160.81;4986669;28;20041;-69
2021/08/31 02:02:10;;;;;;;6.35;5.53;;;15.10;86.40;;;13.57;95.44;96149.59;4963720;28;20126;-70
2021/08/31 02:04:36;;;;;;;6.82;5.85;;;15.10;86.40;;;13.55;95.99;96157.72;4955894;28;20146;-70
2021/08/31 02:07:01;;;;;;;7.93;6.00;;;15.10;86.30;;;13.54;95.37;96155.28;4971656;28;20137;-69
2021/08/31 02:09:27;;;;;;;7.32;6.07;;;15.10;86.30;;;13.52;95.15;96157.34;4969497;28;20062;-70
2021/08/31 02:11:53;;;;;;;6.53;5.88;;;15.10;86.30;;;13.49;95.60;96164.66;4954252;28;20503;-70
2021/08/31 02:14:19;;;;;;;6.53;5.63;;;15.00;86.30;;;13.47;96.10;96161.41;4944437;28;20117;-69
2021/08/31 02:16:44;;;;;;;7.15;5.82;;;15.00;86.30;;;13.45;95.83;96168.72;4971057;28;20109;-70
2021/08/31 02:19:10;;;;;;;6.90;6.15;;;15.00;86.30;;;13.43;95.41;96162.84;4988143;28;20030;-69
2021/08/31 02:21:36;;;;;;;7.07;6.20;;;15.00;86.20;;;13.42;95.61;96168.34;4967867;28;20046;-70
2021/08/31 02:24:02;;;;;;;21.27;18.00;;;15.00;86.30;;;13.42;96.25;96168.34;4969254;28;20137;-70
2021/08/31 02:26:30;;;;;;;19.63;17.48;;;15.00;86.70;;;13.40;95.68;96163.25;4963611;28;20030;-70
2021/08/31 02:28:56;;;;;;;12.73;10.93;;;15.00;86.80;;;13.40;96.39;96165.91;4956612;28;20030;-70
2021/08/31 02:31:22;;;;;;;8.40;7.22;;;15.00;86.70;;;13.41;95.57;96164.06;4967732;28;20041;-70
2021/08/31 02:33:48;;;;;;;7.18;5.72;;;15.00;86.60;;;13.37;96.13;96166.31;4981889;28;20141;-70
2021/08/31 02:36:13;;;;;;;6.50;5.18;;;14.90;86.30;;;13.37;95.73;96174.25;4971978;28;20024;-70
2021/08/31 02:38:39;;;;;;;8.35;5.85;;;14.90;86.30;;;13.35;96.06;96176.28;4985058;28;20034;-70
2021/08/31 02:41:05;;;;;;;5.90;5.13;;;14.90;86.40;;;13.32;95.60;96171.38;4958690;28;20058;-70
2021/08/31 02:43:31;;;;;;;8.43;6.22;;;14.80;86.30;;;13.30;95.68;96169.97;4941818;28;20129;-70
2021/08/31 02:45:56;;;;;;;6.13;5.43;;;14.80;86.20;;;13.28;95.59;96166.72;4984794;28;20072;-70
2021/08/31 02:48:22;;;;;;;6.57;5.50;;;14.80;86.40;;;13.25;95.47;96173.22;4970633;28;20116;-70
2021/08/31 02:50:48;;;;;;;8.93;5.57;;;14.80;86.40;;;13.24;95.05;96174.22;4988104;28;20054;-70
2021/08/31 02:53:13;;;;;;;7.45;6.13;;;14.80;86.40;;;13.22;95.32;96170.97;4935678;28;20054;-70
2021/08/31 02:55:39;;;;;;;6.20;5.22;;;14.70;86.40;;;13.21;94.95;96177.28;4958445;28;20588;-70
2021/08/31 02:58:05;;;;;;;27.50;22.15;;;14.70;86.50;;;13.19;95.47;96174.03;4956281;28;20468;-69
2021/08/31 03:00:32;;;;;;;13.77;11.77;;;14.70;86.60;;;13.21;95.83;96173.84;4974556;28;20141;-70
2021/08/31 03:02:58;;;;;;;16.65;13.65;;;14.80;86.50;;;13.17;95.44;96176.03;4969569;28;20053;-70
2021/08/31 03:05:24;;;;;;;23.20;20.58;;;14.70;86.50;;;13.14;95.56;96173.81;4951199;28;20120;-71
2021/08/31 03:07:51;;;;;;;8.88;7.32;;;14.70;86.40;;;13.11;95.82;96171.53;4968215;28;20062;-70
2021/08/31 03:10:17;;;;;;;7.93;6.38;;;14.60;86.40;;;13.09;95.71;96173.59;4954626;28;20038;-70
2021/08/31 03:12:43;;;;;;;6.80;5.97;;;14.60;86.60;;;13.07;95.78;96173.78;4970727;28;20097;-70
2021/08/31 03:15:09;;;;;;;6.80;5.82;;;14.60;86.80;;;13.06;96.39;96166.88;4997207;28;20066;-70
2021/08/31 03:17:35;;;;;;;6.68;5.88;;;14.60;86.90;;;13.08;95.94;96177.25;4978675;28;20030;-70
2021/08/31 03:20:01;;;;;;;7.60;6.05;;;14.60;86.90;;;13.06;96.29;96176.63;4959095;28;20490;-69
2021/08/31 03:22:26;;;;;;;7.13;5.93;;;14.60;86.90;;;13.06;96.25;96179.28;4998277;28;20490;-70
2021/08/31 03:24:52;;;;;;;7.97;6.20;;;14.60;86.80;;;13.09;95.64;96178.88;4991806;28;20501;-70
2021/08/31 03:27:18;;;;;;;9.73;6.57;;;14.60;86.80;;;13.08;96.70;96182.53;4989575;28;20463;-70
2021/08/31 03:29:44;;;;;;;8.10;5.93;;;14.60;87.00;;;13.09;96.01;96194.72;4969404;28;20035;-70
2021/08/31 03:32:09;;;;;;;6.72;5.90;;;14.60;87.00;;;13.10;97.18;96196.34;4978776;28;20125;-70
2021/08/31 03:34:35;;;;;;;7.97;6.32;;;14.60;86.90;;;13.11;96.54;96188.19;4973235;28;20565;-70
2021/08/31 03:37:01;;;;;;;10.35;6.05;;;14.70;86.90;;;13.12;96.19;96199.59;4953666;28;20431;-70
2021/08/31 03:39:26;;;;;;;7.05;6.22;;;14.70;86.90;;;13.14;97.10;96197.56;4974068;28;21384;-70
2021/08/31 03:41:53;;;;;;;7.35;6.45;;;14.80;86.80;;;13.15;96.17;96194.72;4975248;28;20022;-70
2021/08/31 03:44:18;;;;;;;8.20;6.57;;;14.70;86.80;;;13.17;96.42;96194.53;4987412;28;20036;-70
2021/08/31 03:46:44;;;;;;;8.20;6.78;;;14.70;87.10;;;13.17;96.49;96203.28;4982876;28;20577;-70
2021/08/31 03:49:10;;;;;;;8.43;6.72;;;14.70;87.00;;;13.20;97.41;96215.28;4964465;28;20058;-69
2021/08/31 03:51:36;;;;;;;7.57;6.68;;;14.80;86.90;;;13.18;97.01;96201.47;4968844;28;20070;-70
2021/08/31 03:54:01;;;;;;;7.55;6.20;;;14.70;87.00;;;13.20;96.88;96215.28;4955948;28;20061;-69
2021/08/31 03:56:27;;;;;;;7.97;7.05;;;14.80;86.90;;;13.22;96.22;96217.72;4944892;28;20134;-70
2021/08/31 03:58:53;;;;;;;7.65;6.55;;;14.80;86.80;;;13.22;96.11;96207.97;4985398;28;20429;-70
2021/08/31 04:01:19;;;;;;;8.23;6.55;;;14.80;86.90;;;13.23;96.71;96206.94;4980149;28;20161;-70
2021/08/31 04:03:44;;;;;;;7.93;6.72;;;14.80;86.80;;;13.23;96.42;96209.59;4966280;28;20062;-70
2021/08/31 04:06:10;;;;;;;9.77;7.30;;;14.70;86.60;;;13.23;97.21;96222.81;4983741;28;20031;-71
2021/08/31 04:08:36;;;;;;;10.55;6.72;;;14.70;86.80;;;13.24;96.01;96224.44;4955169;28;20066;-71
2021/08/31 04:11:02;;;;;;;7.82;6.85;;;14.70;86.80;;;13.21;96.34;96221.38;4990098;28;20441;-70
2021/08/31 04:13:27;;;;;;;14.80;7.03;;;14.70;86.90;;;13.20;96.36;96225.84;4956223;28;20690;-71
2021/08/31 04:15:53;;;;;;;7.47;6.43;;;14.70;86.80;;;13.21;96.63;96229.31;4959640;28;20055;-70
2021/08/31 04:18:19;;;;;;;9.75;7.45;;;14.70;86.90;;;13.18;96.76;96225.25;4955860;28;20208;-71
2021/08/31 04:20:45;;;;;;;7.75;6.95;;;14.70;86.90;;;13.18;96.60;96230.53;4968178;28;20057;-70
2021/08/31 04:23:10;;;;;;;9.85;7.55;;;14.70;87.10;;;13.18;96.92;96238.44;4973630;28;20485;-70
2021/08/31 04:25:36;;;;;;;8.52;6.75;;;14.70;87.20;;;13.18;97.48;96238.44;4984898;28;20521;-70
2021/08/31 04:28:02;;;;;;;10.38;6.95;;;14.70;87.10;;;13.17;97.42;96239.44;4972844;28;20474;-70
2021/08/31 04:30:28;;;;;;;9.63;6.95;;;14.70;87.00;;;13.19;96.72;96248.00;4944937;28;20026;-70
2021/08/31 04:32:54;;;;;;;8.43;6.85;;;14.60;87.10;;;13.19;97.65;96245.34;4972801;28;20041;-70
2021/08/31 04:35:19;;;;;;;11.63;7.22;;;14.70;87.00;;;13.20;96.50;96240.88;4981946;28;20493;-71
2021/08/31 04:37:45;;;;;;;7.63;6.55;;;14.70;87.00;;;13.20;96.28;96244.34;4986810;28;20114;-70
2021/08/31 04:40:12;;;;;;;11.93;7.00;;;14.70;87.10;;;13.18;97.09;96241.91;4984651;28;20035;-71
2021/08/31 04:42:37;;;;;;;10.40;6.75;;;14.70;87.00;;;13.21;96.42;96250.44;4976568;28;20259;-70
2021/08/31 04:45:03;;;;;;;7.88;6.35;;;14.70;87.00;;;13.19;96.39;96248.00;4980411;28;20023;-70
2021/08/31 04:47:29;;;;;;;8.48;6.30;;;14.70;86.90;;;13.21;97.55;96253.88;4947195;28;20038;-70
2021/08/31 04:49:55;;;;;;;7.68;6.50;;;14.80;86.90;;;13.22;96.35;96257.34;4951023;28;20129;-70
2021/08/31 04:52:20;;;;;;;8.13;7.00;;;14.80;86.90;;;13.23;96.42;96253.69;4958980;28;20522;-72
2021/08/31 04:54:46;;;;;;;8.68;7.05;;;14.80;86.90;;;13.23;97.34;96254.50;4965808;28;20498;-69
2021/08/31 04:57:12;;;;;;;9.05;6.35;;;14.70;87.10;;;13.24;96.47;96250.84;4970177;28;20470;-70
2021/08/31 04:59:38;;;;;;;7.60;6.60;;;14.80;87.00;;;13.25;96.62;96257.75;4989035;28;20493;-70
2021/08/31 05:02:04;;;;;;;7.63;6.70;;;14.80;87.10;;;13.26;97.62;96251.44;4988299;28;20026;-67
2021/08/31 05:04:30;;;;;;;7.90;6.68;;;14.80;86.90;;;13.27;96.48;96255.72;4986178;28;20043;-70
2021/08/31 05:06:56;;;;;;;7.97;6.93;;;14.80;87.00;;;13.29;96.90;96253.69;4962788;28;20041;-68
2021/08/31 05:09:22;;;;;;;11.55;7.38;;;14.80;87.00;;;13.30;96.45;96260.59;4971440;28;20031;-69
2021/08/31 05:11:48;;;;;;;8.93;7.78;;;14.90;86.90;;;13.31;96.72;96251.66;4943786;28;20034;-71
2021/08/31 05:14:13;;;;;;;9.60;8.07;;;15.00;86.90;;;13.33;97.18;96259.38;4959082;28;20046;-71
2021/08/31 05:16:39;;;;;;;10.50;8.40;;;15.00;86.60;;;13.33;96.55;96254.91;4980346;28;20109;-70
2021/08/31 05:19:05;;;;;;;10.32;7.63;;;14.90;86.80;;;13.32;97.58;96255.91;4957564;28;20069;-71
2021/08/31 05:21:31;;;;;;;9.98;7.90;;;15.00;87.10;;;13.34;97.04;96256.53;4967708;28;20146;-71
2021/08/31 05:23:57;;;;;;;11.88;8.52;;;15.00;86.80;;;13.38;97.01;96263.06;4957189;28;20034;-71
2021/08/31 05:26:23;;;;;;;10.20;8.52;;;15.10;86.60;;;13.40;97.16;96265.50;4956519;28;20397;-70
2021/08/31 05:28:49;;;;;;;8.52;7.60;;;15.10;86.60;;;13.41;96.93;96261.84;4950102;28;20034;-71
2021/08/31 05:31:14;;;;;;;9.95;8.15;;;15.10;86.60;;;13.45;97.58;96269.16;4942404;28;20047;-71
2021/08/31 05:33:40;;;;;;;12.25;8.35;;;15.10;86.70;;;13.47;96.93;96277.69;4956491;28;20096;-71
2021/08/31 05:36:06;;;;;;;11.13;8.35;;;15.10;86.60;;;13.47;96.72;96277.69;4977670;28;20391;-71
2021/08/31 05:38:32;;;;;;;10.25;8.07;;;15.10;86.60;;;13.52;96.39;96278.91;4943714;28;20415;-71
2021/08/31 05:40:57;;;;;;;12.07;8.88;;;15.10;86.70;;;13.53;97.22;96269.97;4988764;28;20073;-70
2021/08/31 05:43:23;;;;;;;11.20;9.65;;;15.10;86.50;;;13.53;96.67;96275.25;4981332;28;20157;-71
2021/08/31 05:45:49;;;;;;;10.82;8.90;;;15.10;86.50;;;13.55;96.40;96274.03;4964709;28;20081;-71
2021/08/31 05:48:15;;;;;;;11.23;8.88;;;15.10;86.40;;;13.57;96.76;96281.75;4968278;28;20541;-71
2021/08/31 05:50:40;;;;;;;13.00;10.07;;;15.10;86.30;;;13.58;96.79;96286.00;4948107;28;20130;-70
2021/08/31 05:53:06;;;;;;;10.95;9.02;;;15.10;86.50;;;13.59;96.18;96282.38;4964116;28;20385;-70
2021/08/31 05:55:32;;;;;;;10.95;9.07;;;15.20;86.60;;;13.60;96.59;96294.56;4977592;28;20505;-71
2021/08/31 05:57:58;;;;;;;12.25;9.50;;;15.10;86.50;;;13.59;96.98;96291.13;4953802;28;20070;-70
2021/08/31 06:00:23;;;;;;;11.20;9.93;;;15.10;86.60;;;13.58;96.63;96283.38;4968807;28;20035;-70
2021/08/31 06:02:49;;;;;;;11.63;9.77;;;15.00;87.10;;;13.58;96.70;96288.66;4972152;28;20038;-70
2021/08/31 06:05:15;;;;;;;12.63;9.77;;;15.10;87.20;;;13.58;97.41;96288.66;4963723;28;20435;-71
2021/08/31 06:07:41;;;;;;;13.55;10.02;;;15.10;87.20;;;13.57;96.70;96294.97;4942870;28;20096;-71
2021/08/31 06:10:08;;;;;;;11.57;10.07;;;15.10;87.40;;;13.59;97.57;96295.59;4949654;28;20055;-69
2021/08/31 06:12:34;;;;;;;13.30;10.35;;;15.10;87.30;;;13.60;97.26;96297.22;4954203;28;20145;-66
2021/08/31 06:15:00;;;;;;;11.18;9.63;;;15.10;87.30;;;13.59;96.86;96296.41;4986697;28;20502;-68
2021/08/31 06:17:27;;;;;;;11.80;9.90;;;15.10;87.20;;;13.61;97.38;96294.38;4983086;28;20073;-71
2021/08/31 06:19:53;;;;;;;11.55;10.13;;;15.20;87.20;;;13.62;97.65;96301.28;4964728;28;20019;-68
2021/08/31 06:22:18;;;;;;;11.15;9.95;;;15.10;87.30;;;13.64;97.19;96303.72;4961682;28;20340;-68
2021/08/31 06:24:45;;;;;;;13.45;10.05;;;15.20;87.10;;;13.65;97.07;96300.06;4986682;28;20164;-70
2021/08/31 06:27:12;;;;;;;12.32;9.90;;;15.20;87.00;;;13.67;97.47;96301.47;4971979;28;20185;-69
2021/08/31 06:29:38;;;;;;;11.32;8.90;;;15.20;87.10;;;13.69;96.85;96312.66;4962893;28;20046;-66
2021/08/31 06:32:04;;;;;;;10.80;8.93;;;15.20;86.90;;;13.70;96.91;96313.47;4980254;28;20422;-70
2021/08/31 06:34:30;;;;;;;11.00;9.40;;;15.10;87.00;;;13.68;97.61;96315.50;4955632;28;20054;-68
2021/08/31 06:36:56;;;;;;;12.48;9.45;;;15.20;87.10;;;13.68;97.76;96318.16;4986239;28;20160;-68
2021/08/31 06:39:22;;;;;;;13.68;9.85;;;15.20;87.30;;;13.69;96.97;96317.94;4968380;28;20121;-69
2021/08/31 06:41:47;;;;;;;13.02;9.50;;;15.20;87.20;;;13.66;97.57;96307.78;4938710;28;20038;-68
2021/08/31 06:44:13;;;;;;;11.10;9.02;;;15.10;87.30;;;13.69;97.42;96322.44;4983614;28;20113;-67
2021/08/31 06:46:39;;;;;;;10.40;8.50;;;15.20;87.10;;;13.69;97.16;96319.78;4957343;28;20039;-69
2021/08/31 06:49:05;;;;;;;11.48;7.90;;;15.10;87.10;;;13.67;97.20;96319.19;4953697;28;20430;-68
2021/08/31 06:51:31;;;;;;;10.68;8.38;;;15.10;87.40;;;13.62;97.18;96322.44;4943456;28;20042;-68
2021/08/31 06:53:56;;;;;;;9.82;8.02;;;14.90;87.80;;;13.61;97.48;96325.28;4966614;28;20378;-69
2021/08/31 06:56:22;;;;;;;11.43;9.95;;;15.00;87.70;;;13.62;96.98;96322.44;4968716;28;20035;-69
2021/08/31 06:58:48;;;;;;;16.38;12.52;;;15.10;87.70;;;13.65;97.79;96321.22;4937125;28;20418;-65
2021/08/31 07:01:14;;;;;;;15.38;11.30;;;15.20;87.80;;;13.68;97.32;96320.81;4972055;28;20161;-69
2021/08/31 07:03:40;;;;;;;14.02;11.38;;;15.30;87.20;;;13.73;98.40;96318.34;4970751;28;20466;-69
2021/08/31 07:06:05;;;;;;;15.75;14.05;;;15.50;87.10;;;13.81;98.60;96322.66;4963615;28;20096;-68
2021/08/31 07:08:31;;;;;;;13.32;11.27;;;15.60;86.70;;;13.87;98.10;96324.47;4952910;28;20070;-69
2021/08/31 07:10:57;;;;;;;12.75;10.98;;;15.70;86.40;;;13.96;97.53;96318.75;4966716;28;20054;-67
2021/08/31 07:13:25;;;;;;;9.80;8.73;;;15.70;85.90;;;14.04;97.36;96313.28;4951320;28;20054;-68
2021/08/31 07:15:51;;;;;;;11.75;8.90;;;15.90;85.40;;;14.16;97.33;96317.94;4950171;28;20026;-69
2021/08/31 07:18:17;;;;;;;9.05;8.00;;;16.00;85.50;;;14.23;97.58;96313.44;4966763;28;20066;-71
2021/08/31 07:20:43;;;;;;;8.85;7.70;;;16.10;84.50;;;14.38;96.80;96316.66;4971655;28;20034;-71
2021/08/31 07:23:11;;;;;;;9.23;8.30;;;16.40;84.00;;;14.51;97.32;96321.97;4952816;28;20528;-68
2021/08/31 07:25:37;;;;;;;8.82;7.93;;;16.60;83.70;;;14.63;96.58;96322.94;4968286;28;20529;-69
2021/08/31 07:28:03;;;;;;;8.73;7.82;;;16.80;83.00;;;14.78;95.43;96332.47;4968457;28;20034;-70
2021/08/31 07:30:29;;;;;;;9.18;8.27;;;16.90;82.50;;;14.91;96.13;96337.69;4971229;28;20034;-68
2021/08/31 07:32:54;;;;;;;9.65;7.40;;;17.10;82.40;;;15.02;95.27;96342.34;4987722;28;20097;-69
2021/08/31 07:35:20;;;;;;;11.07;7.40;;;17.10;81.90;;;15.10;94.38;96343.94;4951002;28;20127;-67
2021/08/31 07:37:46;;;;;;;10.20;7.97;;;17.00;82.20;;;15.17;93.83;96353.50;4974006;28;20058;-68
2021/08/31 07:40:12;;;;;;;8.88;7.28;;;17.10;81.40;;;15.18;93.85;96359.63;4953602;28;20053;-68
2021/08/31 07:42:38;;;;;;;11.43;7.13;;;16.90;81.30;;;15.15;92.55;96362.66;4965392;28;20121;-66
2021/08/31 07:45:07;;;;;;;8.55;7.10;;;16.80;81.80;;;15.15;93.24;96360.81;4966725;28;20117;-67
2021/08/31 07:47:33;;;;;;;7.50;6.70;;;16.80;81.80;;;15.16;92.53;96359.84;4959463;28;20045;-67
2021/08/31 07:50:00;;;;;;;10.32;8.63;;;16.90;81.70;;;15.18;92.15;96360.44;4953326;28;20047;-69
2021/08/31 07:52:26;;;;;;;13.15;10.63;;;16.90;81.50;;;15.22;92.46;96358.97;4972047;28;20038;-70
2021/08/31 07:54:51;;;;;;;14.32;11.90;;;17.00;81.60;;;15.25;92.80;96371.81;4969026;28;20379;-71
2021/08/31 07:57:17;;;;;;;8.60;7.78;;;17.10;81.90;;;15.27;92.25;96369.75;4953536;28;20046;-71
2021/08/31 07:59:43;;;;;;;12.35;10.45;;;17.00;81.20;;;15.27;92.12;96367.09;4987855;28;20059;-70
2021/08/31 08:02:09;;;;;;;8.95;7.57;;;17.00;81.20;;;15.29;91.35;96370.34;4955669;28;20030;-68
2021/08/31 08:04:34;;;;;;;13.77;10.98;;;17.10;80.90;;;15.35;91.37;96375.81;4959459;28;20089;-70
2021/08/31 08:07:00;;;;;;;10.73;9.63;;;17.20;81.20;;;15.40;92.19;96374.19;4971463;28;20078;-68
2021/08/31 08:09:26;;;;;;;12.95;11.10;;;17.30;80.90;;;15.44;91.11;96379.88;4991303;28;20409;-70
2021/08/31 08:11:51;;;;;;;9.88;8.27;;;17.30;80.20;;;15.47;91.21;96379.44;4969061;28;20050;-67
2021/08/31 08:14:17;;;;;;;8.90;8.00;;;17.30;79.80;;;15.53;90.37;96383.88;4981025;28;20050;-69
2021/08/31 08:16:43;;;;;;;9.95;8.70;;;17.40;79.60;;;15.54;90.13;96393.47;4963908;28;20045;-73
2021/08/31 08:19:09;;;;;;;14.07;12.65;;;17.30;79.50;;;15.58;90.18;96399.97;4975907;28;20062;-71
2021/08/31 08:21:36;;;;;;;11.82;9.20;;;17.40;79.90;;;15.62;89.96;96393.25;4938404;28;20166;-68
2021/08/31 08:24:03;;;;;;;8.88;7.97;;;17.40;79.10;;;15.63;89.40;96402.84;4959744;28;20027;-74
2021/08/31 08:26:28;;;;;;;9.00;7.22;;;17.40;79.70;;;15.67;90.11;96397.94;4940865;28;20034;-67
2021/08/31 08:28:54;;;;;;;7.88;6.75;;;17.50;79.40;;;15.67;89.57;96385.47;4958316;28;20074;-70
2021/08/31 08:31:20;;;;;;;7.38;6.68;;;17.60;79.50;;;15.72;89.26;96398.91;4971817;28;20042;-69
2021/08/31 08:33:46;;;;;;;8.52;5.97;;;17.60;78.50;;;15.76;88.89;96393.97;4958049;28;20545;-69
2021/08/31 08:36:11;;;;;;;8.75;6.25;;;17.60;77.50;;;15.81;88.27;96402.09;4973903;28;20360;-71
2021/08/31 08:38:37;;;;;;;7.55;6.38;;;17.70;77.70;;;15.81;87.97;96389.66;4983836;28;20035;-72
2021/08/31 08:41:05;;;;;;;8.43;6.43;;;17.70;77.80;;;15.82;88.13;96388.63;4955761;28;20146;-70
2021/08/31 08:43:34;;;;;;;6.65;5.35;;;17.70;77.30;;;15.87;87.22;96396.78;4978519;28;20088;-70
2021/08/31 08:46:05;;;;;;;6.43;5.30;;;17.80;76.80;;;15.89;86.55;96386.75;4963674;28;20069;-72
2021/08/31 08:48:31;;;;;;;7.22;5.43;;;17.70;76.60;;;15.88;86.84;96395.75;4970921;28;20199;-71
2021/08/31 08:51:00;;;;;;;6.88;5.90;;;17.70;76.60;;;15.93;86.84;96390.59;4961972;28;20118;-71
2021/08/31 08:53:26;;;;;;;6.28;5.28;;;17.90;76.70;;;16.02;87.50;96395.63;4954839;28;20038;-71
2021/08/31 08:55:52;;;;;;;7.13;5.65;;;18.10;77.20;;;16.07;87.61;96395.78;4966875;28;20033;-71
2021/08/31 08:58:18;;;;;;;6.97;5.63;;;18.10;76.90;;;16.14;86.89;96401.88;4958299;28;20040;-70
2021/08/31 09:01:04;;;;;;;6.85;6.18;;;18.20;76.70;;;16.25;86.01;96398.50;4986009;28;20114;-68
2021/08/31 09:03:32;;;;;;;16.63;14.88;;;18.30;76.20;;;16.27;86.28;96407.06;4974714;28;20046;-71
2021/08/31 09:06:18;;;;;;;13.13;11.65;;;18.20;75.60;;;16.27;84.73;96400.94;4968088;28;20084;-68
2021/08/31 09:08:59;;;;;;;8.43;6.18;;;18.20;75.50;;;16.26;84.80;96413.41;4990871;28;20046;-73
2021/08/31 09:11:38;;;;;;;11.10;5.18;;;18.10;75.80;;;16.23;85.04;96405.88;4960025;28;20105;-74
2021/08/31 09:14:28;;;;;;;6.45;5.45;;;18.00;75.40;;;16.27;82.88;96409.72;4944344;28;20038;-68
2021/08/31 09:16:55;;;;;;;6.97;5.78;;;18.20;74.70;;;16.33;84.84;96410.72;4988771;28;20092;-68
2021/08/31 09:19:41;;;;;;;8.57;5.68;;;18.40;74.80;;;16.44;83.09;96408.16;4969735;28;20118;-68
2021/08/31 09:22:26;;;;;;;5.97;5.15;;;18.80;73.10;;;16.73;82.72;96400.53;4939268;28;20031;-69
2021/08/31 09:25:09;;;;;;;6.57;5.35;;;19.50;71.40;;;17.07;83.30;96402.63;4964753;28;20057;-69
2021/08/31 09:27:43;;;;;;;6.47;5.55;;;19.80;71.40;;;17.31;82.97;96408.09;4973796;28;20137;-68
2021/08/31 09:30:23;;;;;;;5.70;5.10;;;20.10;70.10;;;17.51;82.23;96408.66;4956964;28;20105;-71
2021/08/31 09:33:12;;;;;;;6.10;4.95;;;20.10;69.50;;;17.66;80.16;96402.94;4974114;28;20502;-69
2021/08/31 09:35:43;;;;;;;6.18;4.68;;;20.20;68.90;;;17.84;81.68;96405.56;4995734;28;20164;-70
2021/08/31 09:38:18;;;;;;;7.32;5.20;;;20.50;68.70;;;18.06;79.60;96405.84;4972765;28;20459;-70
2021/08/31 09:40:53;;;;;;;5.47;4.15;;;20.80;66.80;;;18.25;78.71;96402.06;4973735;28;20080;-68
2021/08/31 09:43:22;;;;;;;6.30;4.60;;;20.90;64.50;;;18.51;80.31;96408.78;4973870;28;20037;-68
2021/08/31 09:45:49;;;;;;;4.63;3.63;;;21.10;65.20;;;18.58;78.98;96414.84;4949697;28;20128;-71
2021/08/31 09:48:18;;;;;;;4.57;3.83;;;20.90;64.80;;;18.56;77.92;96408.13;4972235;28;20393;-71
2021/08/31 09:50:45;;;;;;;4.97;3.70;;;20.70;65.00;;;18.52;77.38;96414.94;4968979;28;20042;-71
2021/08/31 09:53:24;;;;;;;5.13;3.70;;;20.40;66.10;;;18.40;75.26;96412.28;4967216;28;20034;-70
2021/08/31 09:55:51;;;;;;;4.80;4.22;;;20.20;66.70;;;18.35;77.29;96415.63;4979989;28;20193;-78
2021/08/31 09:58:24;;;;;;;6.07;4.30;;;20.10;67.40;;;18.28;76.98;96406.13;4963804;28;20051;-71
2021/08/31 10:00:52;;;;;;;4.15;3.70;;;20.10;68.20;;;18.17;77.12;96417.56;4980295;28;20038;-70
2021/08/31 10:03:18;;;;;;;7.22;4.57;;;19.90;68.70;;;18.00;77.97;96425.41;4971442;28;20061;-71
2021/08/31 10:05:44;;;;;;;5.15;4.75;;;19.50;70.00;;;17.84;78.23;96429.50;4962493;28;20479;-71
2021/08/31 10:08:11;;;;;;;6.35;5.10;;;19.40;70.70;;;17.64;78.19;96429.75;4960508;28;20037;-71
2021/08/31 10:10:38;;;;;;;12.38;9.10;;;19.20;71.20;;;17.51;78.07;96419.28;4956533;28;20034;-72
2021/08/31 10:13:09;;;;;;;5.45;3.92;;;19.00;69.60;;;17.41;77.08;96425.13;4977563;28;20046;-71